Time;durP1;ratioP1;P1;durP2;ratioP2;P2;SDS_P1;SDS_P2;PMS_P1;PMS_P2;Temp;Humidity;BMP_temperature;BMP_pressure;BME280_temperature;BME280_humidity;BME280_pressure;Samples;Min_cycle;Max_cycle;Signal;HPM_P1;HPM_P2
2023/04/22 00:00:42;;;;;;;;;3.00;3.00;;;;;18.41;38.41;98571.78;5076996;27;45491;-68
2023/04/22 00:03:07;;;;;;;;;3.75;3.50;;;;;18.45;38.11;98570.53;5073645;27;45733;-69
2023/04/22 00:05:33;;;;;;;;;5.50;3.00;;;;;18.44;38.43;98569.69;5076830;28;45426;-69
2023/04/22 00:07:58;;;;;;;;;4.00;4.00;;;;;18.44;38.61;98564.34;5076418;28;45416;-69
2023/04/22 00:10:24;;;;;;;;;5.75;5.00;;;;;18.44;38.24;98553.69;5076202;27;45741;-69
2023/04/22 00:12:49;;;;;;;;;6.25;5.75;;;;;18.43;38.49;98557.31;5076741;27;45456;-69
2023/04/22 00:15:16;;;;;;;;;4.00;4.00;;;;;18.42;38.20;98558.31;5076531;28;45386;-69
2023/04/22 00:17:42;;;;;;;;;3.00;3.00;;;;;18.41;38.81;98558.44;5074254;28;45326;-69
2023/04/22 00:20:10;;;;;;;;;3.00;2.00;;;;;18.38;38.41;98564.88;5075256;28;45365;-67
2023/04/22 00:22:35;;;;;;;;;3.00;3.00;;;;;18.35;38.90;98569.59;5076731;27;45524;-67
2023/04/22 00:25:00;;;;;;;;;3.00;3.00;;;;;18.31;39.33;98577.00;5076030;27;45614;-67
2023/04/22 00:27:26;;;;;;;;;3.75;3.00;;;;;18.26;39.38;98568.53;5076159;27;45493;-69
2023/04/22 00:29:51;;;;;;;;;3.50;3.25;;;;;18.20;39.62;98563.69;5076408;27;45548;-69
2023/04/22 00:32:16;;;;;;;;;5.50;4.25;;;;;18.13;39.70;98570.47;5070041;27;45481;-68
2023/04/22 00:34:42;;;;;;;;;3.25;3.25;;;;;18.10;39.99;98571.56;5071497;28;45963;-69
2023/04/22 00:37:07;;;;;;;;;4.00;4.00;;;;;18.06;40.23;98569.28;5076665;27;45419;-69
2023/04/22 00:39:33;;;;;;;;;3.25;3.25;;;;;18.02;39.90;98570.47;5076349;27;46033;-69
2023/04/22 00:41:59;;;;;;;;;4.00;4.00;;;;;17.95;40.27;98558.59;5074877;28;45566;-69
2023/04/22 00:44:25;;;;;;;;;5.75;5.75;;;;;17.88;40.68;98573.41;5076609;28;46188;-69
2023/04/22 00:46:51;;;;;;;;;3.80;3.80;;;;;17.81;40.60;98564.16;5073523;28;45372;-69
2023/04/22 00:49:19;;;;;;;;;4.00;3.20;;;;;17.75;40.58;98565.50;5071488;28;45479;-69
2023/04/22 00:51:44;;;;;;;;;4.75;4.75;;;;;17.70;40.75;98571.19;5076253;28;45351;-69
2023/04/22 00:54:10;;;;;;;;;4.25;3.25;;;;;17.64;40.90;98558.34;5075861;27;46166;-69
2023/04/22 00:56:37;;;;;;;;;6.00;4.75;;;;;17.58;41.12;98561.47;5068456;27;45312;-69
2023/04/22 00:59:03;;;;;;;;;4.00;4.00;;;;;17.53;41.02;98550.31;5075845;27;45467;-69
2023/04/22 01:01:29;;;;;;;;;3.50;3.25;;;;;17.50;41.11;98550.53;5075989;27;45484;-69
2023/04/22 01:03:56;;;;;;;;;4.00;3.25;;;;;17.50;41.04;98549.69;5075184;27;47682;-69
2023/04/22 01:06:23;;;;;;;;;3.00;3.00;;;;;17.49;41.41;98547.97;5075948;27;45338;-69
2023/04/22 01:08:48;;;;;;;;;4.00;4.00;;;;;17.47;41.39;98540.09;5074442;28;45331;-68
2023/04/22 01:11:14;;;;;;;;;3.00;3.00;;;;;17.44;40.95;98541.19;5075241;27;45468;-69
2023/04/22 01:13:40;;;;;;;;;5.00;3.00;;;;;17.43;41.11;98533.31;5075690;27;46100;-69
2023/04/22 01:16:07;;;;;;;;;5.40;5.20;;;;;17.44;41.10;98532.34;5075372;27;45467;-69
2023/04/22 01:18:34;;;;;;;;;3.75;3.75;;;;;17.43;41.42;98534.16;5061734;27;45546;-69
2023/04/22 01:21:01;;;;;;;;;4.25;4.25;;;;;17.42;41.21;98529.81;5076187;28;45518;-69
2023/04/22 01:23:26;;;;;;;;;3.25;3.25;;;;;17.40;41.46;98530.91;5076144;27;45577;-69
2023/04/22 01:25:52;;;;;;;;;5.00;3.25;;;;;17.38;41.48;98531.03;5075148;28;45376;-69
2023/04/22 01:28:18;;;;;;;;;4.00;3.00;;;;;17.36;41.55;98530.28;5076591;27;45388;-69
2023/04/22 01:30:43;;;;;;;;;3.50;3.50;;;;;17.35;41.45;98536.59;5091882;27;45387;-69
2023/04/22 01:33:10;;;;;;;;;5.00;3.25;;;;;17.35;41.42;98535.72;5065948;27;46382;-68
2023/04/22 01:35:36;;;;;;;;;3.80;3.40;;;;;17.33;41.96;98538.50;5074041;28;45420;-69
2023/04/22 01:38:04;;;;;;;;;3.50;3.50;;;;;17.32;41.72;98541.28;5075409;27;45458;-68
2023/04/22 01:40:33;;;;;;;;;4.25;4.25;;;;;17.30;41.61;98540.56;5075233;28;45412;-68
2023/04/22 01:42:59;;;;;;;;;4.25;4.25;;;;;17.28;41.49;98543.34;5074076;28;46349;-69
2023/04/22 01:45:26;;;;;;;;;3.00;3.00;;;;;17.28;41.63;98538.00;5069659;28;45554;-68
2023/04/22 01:47:51;;;;;;;;;4.25;4.25;;;;;17.28;41.74;98539.81;5067577;28;45535;-68
2023/04/22 01:50:17;;;;;;;;;5.00;4.00;;;;;17.28;41.68;98538.00;5075685;27;45392;-68
2023/04/22 01:52:42;;;;;;;;;4.00;4.00;;;;;17.24;41.96;98541.91;5075279;27;45599;-68
2023/04/22 01:55:08;;;;;;;;;4.00;4.00;;;;;17.22;41.65;98549.16;5075247;27;45333;-68
2023/04/22 01:57:33;;;;;;;;;3.50;3.25;;;;;17.22;42.05;98553.63;5074673;28;45434;-68
2023/04/22 01:59:59;;;;;;;;;3.50;3.00;;;;;17.21;41.59;98541.28;5074255;27;45541;-68
2023/04/22 02:02:25;;;;;;;;;4.50;3.00;;;;;17.21;41.67;98544.78;5070203;28;46399;-68
2023/04/22 02:04:50;;;;;;;;;4.00;3.00;;;;;17.22;41.52;98551.81;5074975;27;45423;-68
2023/04/22 02:07:16;;;;;;;;;3.50;3.25;;;;;17.22;41.73;98550.97;5074980;27;45507;-68
2023/04/22 02:09:41;;;;;;;;;4.00;4.00;;;;;17.22;41.66;98550.97;5090672;27;45340;-68
2023/04/22 02:12:06;;;;;;;;;3.00;3.00;;;;;17.21;41.72;98550.13;5073480;28;46306;-69
2023/04/22 02:14:32;;;;;;;;;3.75;3.75;;;;;17.21;41.83;98547.44;5074974;27;45485;-68
2023/04/22 02:16:57;;;;;;;;;4.00;4.00;;;;;17.22;41.12;98550.97;5074354;27;45791;-68
2023/04/22 02:19:23;;;;;;;;;5.25;4.00;;;;;17.23;41.29;98548.19;5073497;28;45385;-68
2023/04/22 02:21:48;;;;;;;;;5.50;4.00;;;;;17.24;41.28;98554.38;5074770;27;45727;-69
2023/04/22 02:24:13;;;;;;;;;4.00;4.00;;;;;17.24;41.18;98559.69;5074974;28;45450;-68
2023/04/22 02:26:40;;;;;;;;;5.00;4.00;;;;;17.26;40.97;98557.75;5074107;27;45852;-68
2023/04/22 02:29:06;;;;;;;;;2.50;2.50;;;;;17.27;41.32;98556.78;5074716;27;45357;-68
2023/04/22 02:31:31;;;;;;;;;2.50;2.50;;;;;17.28;41.09;98558.47;5074500;28;46672;-68
2023/04/22 02:33:56;;;;;;;;;3.00;3.00;;;;;17.27;41.07;98540.78;5063788;27;45516;-68
2023/04/22 02:36:22;;;;;;;;;5.00;4.00;;;;;17.27;40.76;98549.63;5074563;27;45787;-68
2023/04/22 02:38:48;;;;;;;;;4.25;4.25;;;;;17.30;40.29;98545.88;5074544;27;45444;-68
2023/04/22 02:41:13;;;;;;;;;3.60;3.40;;;;;17.33;40.27;98543.84;5074050;27;46340;-68
2023/04/22 02:43:41;;;;;;;;;3.00;2.00;;;;;17.36;40.48;98540.94;5074625;27;45415;-68
2023/04/22 02:46:06;;;;;;;;;5.00;3.00;;;;;17.38;40.24;98543.50;5074261;28;45621;-68
2023/04/22 02:48:31;;;;;;;;;4.00;4.00;;;;;17.39;39.95;98542.53;5065233;28;45487;-68
2023/04/22 02:50:57;;;;;;;;;3.25;2.75;;;;;17.42;39.98;98547.63;5073993;27;45602;-68
2023/04/22 02:53:22;;;;;;;;;4.75;4.00;;;;;17.44;40.05;98538.53;5074227;27;45337;-68
2023/04/22 02:55:48;;;;;;;;;4.00;3.75;;;;;17.48;39.89;98536.47;5073336;27;45322;-68
2023/04/22 02:58:13;;;;;;;;;3.50;3.50;;;;;17.52;39.79;98534.44;5074110;27;45310;-68
2023/04/22 03:00:38;;;;;;;;;7.00;3.75;;;;;17.55;40.01;98531.53;5074201;27;45650;-68
2023/04/22 03:03:04;;;;;;;;;3.50;3.50;;;;;17.55;39.67;98523.53;5071237;27;45315;-68
2023/04/22 03:05:29;;;;;;;;;3.25;3.25;;;;;17.57;39.48;98521.59;5074071;27;45360;-68
2023/04/22 03:07:56;;;;;;;;;4.00;4.00;;;;;17.59;39.58;98519.66;5073967;27;45427;-68
2023/04/22 03:10:21;;;;;;;;;3.00;3.00;;;;;17.58;39.59;98517.97;5073640;27;45681;-68
2023/04/22 03:12:47;;;;;;;;;1.00;1.00;;;;;17.57;39.78;98517.13;5074515;27;45377;-68
2023/04/22 03:15:13;;;;;;;;;2.00;2.00;;;;;17.56;39.15;98523.41;5072737;28;45523;-68
2023/04/22 03:17:38;;;;;;;;;1.50;1.50;;;;;17.57;39.71;98513.59;5065256;27;45356;-68
2023/04/22 03:20:05;;;;;;;;;4.00;3.00;;;;;17.53;39.54;98523.66;5069255;28;45431;-68
2023/04/22 03:22:30;;;;;;;;;2.40;2.40;;;;;17.51;40.88;98520.25;5072951;28;45431;-68
2023/04/22 03:24:56;;;;;;;;;4.75;4.75;;;;;17.44;41.28;98519.88;5071955;28;45416;-68
2023/04/22 03:27:21;;;;;;;;;5.50;5.50;;;;;17.36;41.69;98503.63;5074336;27;45373;-68
2023/04/22 03:29:46;;;;;;;;;5.50;5.00;;;;;17.30;42.26;98519.25;5073552;27;45480;-68
2023/04/22 03:32:12;;;;;;;;;4.75;4.75;;;;;17.20;42.66;98513.78;5084211;27;45414;-68
2023/04/22 03:34:37;;;;;;;;;6.00;6.00;;;;;17.09;42.56;98517.25;5069221;28;45373;-68
2023/04/22 03:37:02;;;;;;;;;4.00;4.00;;;;;17.02;42.92;98512.53;5073391;27;45541;-68
2023/04/22 03:39:28;;;;;;;;;9.00;8.00;;;;;16.92;43.53;98509.72;5072706;27;45583;-68
2023/04/22 03:41:53;;;;;;;;;9.75;8.25;;;;;16.81;44.34;98514.97;5073398;27;45352;-68
2023/04/22 03:44:18;;;;;;;;;12.00;8.50;;;;;16.69;44.94;98511.44;5073752;27;45422;-68
2023/04/22 03:46:44;;;;;;;;;8.25;8.00;;;;;16.59;45.36;98514.88;5072469;27;45593;-68
2023/04/22 03:49:10;;;;;;;;;9.50;9.50;;;;;16.50;45.44;98512.88;5066930;28;47019;-68
2023/04/22 03:51:36;;;;;;;;;11.25;9.00;;;;;16.43;46.28;98528.44;5073388;27;45412;-68
2023/04/22 03:54:01;;;;;;;;;9.50;9.25;;;;;16.37;46.24;98534.22;5074213;27;45356;-68
2023/04/22 03:56:26;;;;;;;;;12.50;12.50;;;;;16.30;47.19;98530.31;5088651;27;45514;-68
2023/04/22 03:58:52;;;;;;;;;11.00;9.00;;;;;16.23;46.96;98529.06;5073311;27;46145;-68
2023/04/22 04:01:17;;;;;;;;;8.50;7.00;;;;;16.18;46.46;98529.38;5073654;27;45460;-68
2023/04/22 04:03:42;;;;;;;;;8.50;6.25;;;;;16.15;45.97;98531.41;5069707;27;46090;-68
2023/04/22 04:06:08;;;;;;;;;6.25;5.25;;;;;16.15;46.18;98526.94;5073155;27;45369;-68
2023/04/22 04:08:33;;;;;;;;;6.50;6.50;;;;;16.16;46.07;98528.66;5075536;28;45739;-68
2023/04/22 04:10:59;;;;;;;;;5.75;5.75;;;;;16.16;45.53;98517.16;5076469;27;45416;-68
2023/04/22 04:13:24;;;;;;;;;6.25;5.50;;;;;16.17;45.61;98525.03;5075537;28;45452;-68
2023/04/22 04:15:51;;;;;;;;;6.25;6.25;;;;;16.19;46.23;98524.91;5077136;27;45419;-68
2023/04/22 04:18:17;;;;;;;;;7.50;5.00;;;;;16.18;45.80;98524.06;5075642;28;46110;-68
2023/04/22 04:20:42;;;;;;;;;9.25;7.50;;;;;16.20;45.65;98519.50;5076705;27;45396;-68
2023/04/22 04:23:07;;;;;;;;;7.50;7.50;;;;;16.21;45.46;98517.69;5076966;27;45401;-68
2023/04/22 04:25:42;;;;;;;;;9.00;7.75;;;;;16.21;45.83;98521.19;5091951;27;45637;-68
2023/04/22 04:28:10;;;;;;;;;7.25;5.75;;;;;16.23;45.70;98526.41;5076381;27;45452;-68
2023/04/22 04:30:35;;;;;;;;;10.80;8.20;;;;;16.22;45.47;98517.56;5075517;28;45375;-68
2023/04/22 04:33:07;;;;;;;;;5.50;5.50;;;;;16.25;45.79;98528.00;5066657;28;45522;-68
2023/04/22 04:35:33;;;;;;;;;5.50;5.50;;;;;16.26;45.93;98528.81;5075288;28;45489;-68
2023/04/22 04:37:59;;;;;;;;;12.00;11.00;;;;;16.25;47.18;98540.44;5076306;28;45444;-68
2023/04/22 04:40:28;;;;;;;;;13.50;12.75;;;;;16.16;48.16;98535.78;5075947;27;45381;-68
2023/04/22 04:42:54;;;;;;;;;15.25;13.75;;;;;16.02;49.38;98529.66;5076616;27;45395;-68
2023/04/22 04:45:21;;;;;;;;;15.00;14.00;;;;;15.85;49.75;98529.16;5076264;27;45399;-68
2023/04/22 04:47:49;;;;;;;;;13.75;12.50;;;;;15.73;50.11;98535.34;5069900;27;46287;-68
2023/04/22 04:50:15;;;;;;;;;12.50;11.50;;;;;15.65;50.05;98536.72;5076150;27;45448;-68
2023/04/22 04:52:40;;;;;;;;;11.75;11.50;;;;;15.59;50.38;98537.13;5075082;28;45400;-68
2023/04/22 04:55:06;;;;;;;;;9.00;9.00;;;;;15.53;51.04;98550.81;5074679;28;45608;-68
2023/04/22 04:57:31;;;;;;;;;8.00;8.00;;;;;15.47;51.03;98529.97;5075977;28;46395;-68
2023/04/22 04:59:56;;;;;;;;;13.75;12.50;;;;;15.39;51.73;98534.16;5075486;27;45450;-68
2023/04/22 05:02:22;;;;;;;;;8.25;8.25;;;;;15.32;52.14;98554.94;5072704;27;45441;-68
2023/04/22 05:04:47;;;;;;;;;12.00;11.00;;;;;15.27;52.41;98549.09;5075800;27;45480;-67
2023/04/22 05:07:13;;;;;;;;;10.00;9.25;;;;;15.24;51.70;98538.72;5075756;27;45650;-68
2023/04/22 05:09:38;;;;;;;;;10.50;10.00;;;;;15.21;52.06;98550.38;5074428;27;45516;-68
2023/04/22 05:12:04;;;;;;;;;11.25;9.00;;;;;15.19;52.57;98565.56;5075494;27;45434;-68
2023/04/22 05:14:29;;;;;;;;;13.00;10.75;;;;;15.19;52.32;98557.59;5075243;28;45440;-68
2023/04/22 05:16:55;;;;;;;;;7.50;6.00;;;;;15.19;52.21;98570.03;5090454;27;47983;-68
2023/04/22 05:19:20;;;;;;;;;9.50;9.50;;;;;15.20;52.35;98579.69;5075354;27;45450;-68
2023/04/22 05:21:45;;;;;;;;;10.50;10.00;;;;;15.21;52.21;98579.59;5075954;28;45551;-68
2023/04/22 05:24:11;;;;;;;;;9.00;8.00;;;;;15.24;52.77;98582.06;5073921;28;46030;-68
2023/04/22 05:26:36;;;;;;;;;8.75;7.75;;;;;15.26;53.06;98589.88;5075115;27;46014;-68
2023/04/22 05:29:02;;;;;;;;;9.25;9.25;;;;;15.22;52.21;98601.69;5075686;28;45536;-68
2023/04/22 05:31:28;;;;;;;;;10.25;10.00;;;;;15.19;52.39;98600.09;5075622;27;45559;-68
2023/04/22 05:33:53;;;;;;;;;13.50;9.75;;;;;15.22;52.82;98599.88;5064870;27;45483;-68
2023/04/22 05:36:18;;;;;;;;;12.00;11.25;;;;;15.23;53.66;98614.00;5074775;27;45332;-68
2023/04/22 05:38:44;;;;;;;;;12.75;12.75;;;;;15.22;53.51;98621.13;5074984;28;45349;-68
2023/04/22 05:41:09;;;;;;;;;12.50;12.00;;;;;15.20;54.07;98612.41;5074089;27;45465;-68
2023/04/22 05:43:35;;;;;;;;;13.00;11.00;;;;;15.17;54.06;98606.44;5075469;27;45349;-68
2023/04/22 05:46:00;;;;;;;;;9.50;9.50;;;;;15.14;54.42;98619.91;5075001;27;45396;-68
2023/04/22 05:48:25;;;;;;;;;14.75;11.25;;;;;15.16;54.19;98618.03;5068337;27;45375;-68
2023/04/22 05:50:51;;;;;;;;;13.50;11.25;;;;;15.18;54.85;98624.09;5075486;27;45546;-68
2023/04/22 05:53:17;;;;;;;;;12.75;11.00;;;;;15.21;54.51;98631.84;5075259;27;45600;-68
2023/04/22 05:55:42;;;;;;;;;11.00;10.00;;;;;15.26;54.88;98629.72;5074142;28;46003;-67
2023/04/22 05:58:08;;;;;;;;;9.25;9.00;;;;;15.34;54.76;98640.69;5074549;27;45393;-68
2023/04/22 06:00:33;;;;;;;;;13.25;13.00;;;;;15.42;54.68;98641.00;5074536;28;45428;-68
2023/04/22 06:02:58;;;;;;;;;12.50;10.25;;;;;15.47;54.50;98632.75;5071706;27;45530;-68
2023/04/22 06:05:24;;;;;;;;;10.75;9.00;;;;;15.52;54.50;98634.13;5074376;27;45474;-68
2023/04/22 06:07:50;;;;;;;;;9.75;9.75;;;;;15.56;54.11;98643.66;5074607;28;45402;-68
2023/04/22 06:10:15;;;;;;;;;13.25;12.25;;;;;15.56;54.38;98646.31;5074235;28;45646;-68
2023/04/22 06:12:40;;;;;;;;;13.25;12.50;;;;;15.57;54.60;98653.31;5073448;28;45481;-68
2023/04/22 06:15:06;;;;;;;;;11.75;10.50;;;;;15.61;54.78;98649.47;5074576;27;46488;-67
2023/04/22 06:17:32;;;;;;;;;12.50;11.00;;;;;15.64;53.77;98672.34;5066254;27;45413;-67
2023/04/22 06:19:57;;;;;;;;;9.25;8.00;;;;;15.60;54.61;98660.22;5069696;28;45359;-67
2023/04/22 06:22:23;;;;;;;;;8.50;8.50;;;;;15.52;54.15;98670.50;5074252;27;45601;-67
2023/04/22 06:24:48;;;;;;;;;8.75;8.00;;;;;15.51;53.77;98671.44;5073468;28;45427;-67
2023/04/22 06:27:13;;;;;;;;;10.00;9.50;;;;;15.52;53.48;98663.38;5074313;27;45238;-67
2023/04/22 06:29:39;;;;;;;;;8.75;8.25;;;;;15.54;53.70;98669.44;5074030;27;45378;-69
2023/04/22 06:32:04;;;;;;;;;11.75;9.00;;;;;15.60;54.25;98670.84;5069127;27;45313;-68
2023/04/22 06:34:30;;;;;;;;;10.25;10.25;;;;;15.67;54.72;98673.00;5068472;28;46453;-68
2023/04/22 06:36:56;;;;;;;;;13.50;13.50;;;;;15.76;54.60;98652.03;5073917;27;45328;-68
2023/04/22 06:39:21;;;;;;;;;10.50;9.25;;;;;15.82;54.96;98678.22;5073011;27;45373;-65
2023/04/22 06:41:46;;;;;;;;;13.00;11.75;;;;;15.90;54.68;98681.22;5073666;27;45319;-68
2023/04/22 06:44:12;;;;;;;;;13.25;12.00;;;;;15.96;54.86;98684.28;5073847;27;46548;-69
2023/04/22 06:46:37;;;;;;;;;13.00;10.75;;;;;16.02;54.89;98675.03;5074137;27;45480;-68
2023/04/22 06:49:03;;;;;;;;;17.25;15.75;;;;;16.11;54.68;98655.75;5073727;28;45502;-68
2023/04/22 06:51:28;;;;;;;;;14.00;13.00;;;;;16.17;54.97;98676.63;5073668;28;45418;-68
2023/04/22 06:53:53;;;;;;;;;14.75;13.00;;;;;16.26;55.02;98681.28;5073721;27;46420;-68
2023/04/22 06:56:19;;;;;;;;;17.50;15.25;;;;;16.34;54.53;98692.25;5068594;27;45534;-69
2023/04/22 06:58:44;;;;;;;;;17.25;17.25;;;;;16.38;54.82;98690.22;5072606;28;45406;-69
2023/04/22 07:01:10;;;;;;;;;13.75;13.75;;;;;16.36;53.75;98686.81;5073802;27;45409;-69
2023/04/22 07:03:35;;;;;;;;;15.25;12.75;;;;;16.34;54.62;98700.22;5073333;27;45523;-69
2023/04/22 07:06:01;;;;;;;;;14.25;13.25;;;;;16.37;54.66;98700.03;5073829;27;45498;-68
2023/04/22 07:08:26;;;;;;;;;15.00;15.00;;;;;16.42;54.63;98693.53;5067222;27;45514;-69
2023/04/22 07:10:51;;;;;;;;;13.25;12.50;;;;;16.35;54.45;98682.47;5073399;28;45482;-69
2023/04/22 07:13:17;;;;;;;;;13.75;10.50;;;;;16.30;54.76;98696.06;5073505;27;45980;-69
2023/04/22 07:15:42;;;;;;;;;11.25;10.75;;;;;16.35;54.52;98678.00;5073579;27;45388;-69
2023/04/22 07:18:07;;;;;;;;;13.75;13.75;;;;;16.41;54.61;98698.00;5072419;27;45470;-69
2023/04/22 07:20:33;;;;;;;;;12.50;12.25;;;;;16.52;54.59;98684.78;5073578;27;45570;-68
2023/04/22 07:22:58;;;;;;;;;14.75;14.00;;;;;16.63;54.35;98687.53;5073492;27;46040;-69
2023/04/22 07:25:24;;;;;;;;;15.00;15.00;;;;;16.74;54.49;98692.97;5072892;28;45375;-69
2023/04/22 07:27:49;;;;;;;;;13.75;12.75;;;;;16.88;53.91;98670.66;5073662;27;45493;-69
2023/04/22 07:30:15;;;;;;;;;14.25;11.50;;;;;16.97;53.71;98677.97;5072666;27;45353;-69
2023/04/22 07:32:40;;;;;;;;;14.00;11.75;;;;;17.05;53.64;98683.59;5063771;27;46087;-69
2023/04/22 07:35:06;;;;;;;;;15.50;12.50;;;;;17.13;53.65;98680.34;5072181;28;45408;-69
2023/04/22 07:37:31;;;;;;;;;14.25;13.25;;;;;17.16;53.41;98668.63;5073538;28;45291;-69
2023/04/22 07:39:57;;;;;;;;;12.00;11.75;;;;;17.13;53.47;98680.34;5072574;27;45613;-69
2023/04/22 07:42:22;;;;;;;;;13.00;10.75;;;;;17.15;53.67;98681.09;5075119;27;46537;-69
2023/04/22 07:44:47;;;;;;;;;13.75;12.00;;;;;17.18;53.81;98690.69;5076972;27;45494;-69
2023/04/22 07:47:13;;;;;;;;;11.75;11.75;;;;;17.18;53.89;98682.69;5071546;27;45440;-69
2023/04/22 07:49:38;;;;;;;;;15.75;14.25;;;;;17.21;54.14;98685.97;5074355;28;45379;-69
2023/04/22 07:52:04;;;;;;;;;14.25;14.25;;;;;17.24;54.22;98698.22;5076641;27;46486;-69
2023/04/22 07:54:29;;;;;;;;;15.00;15.00;;;;;17.26;54.11;98710.44;5076375;27;45474;-69
2023/04/22 07:56:56;;;;;;;;;12.75;10.75;;;;;17.27;53.98;98689.97;5077083;28;45411;-69
2023/04/22 07:59:21;;;;;;;;;14.00;10.75;;;;;17.24;53.54;98695.56;5076605;27;45444;-69
2023/04/22 08:01:47;;;;;;;;;13.75;13.75;;;;;17.18;54.03;98706.66;5076080;27;46138;-69
2023/04/22 08:04:12;;;;;;;;;14.75;14.75;;;;;17.16;54.66;98713.91;5076022;28;45444;-69
2023/04/22 08:06:37;;;;;;;;;19.00;15.50;;;;;17.15;54.76;98709.53;5076722;27;45456;-68
2023/04/22 08:09:03;;;;;;;;;15.75;14.25;;;;;17.16;54.87;98713.91;5076328;28;45481;-69
2023/04/22 08:11:28;;;;;;;;;15.75;15.50;;;;;17.15;55.18;98707.72;5076124;27;45406;-69
2023/04/22 08:13:53;;;;;;;;;20.00;17.00;;;;;17.13;55.62;98722.97;5076217;27;45415;-69
2023/04/22 08:16:19;;;;;;;;;16.25;16.00;;;;;17.08;55.66;98720.66;5076506;27;45640;-68
2023/04/22 08:18:44;;;;;;;;;14.75;14.50;;;;;17.06;55.34;98722.59;5075985;28;45356;-69
2023/04/22 08:21:11;;;;;;;;;13.50;13.50;;;;;17.03;54.78;98713.97;5076991;28;46047;-68
2023/04/22 08:23:36;;;;;;;;;12.20;12.20;;;;;17.02;54.30;98734.41;5076448;27;45416;-70
2023/04/22 08:26:02;;;;;;;;;13.75;13.00;;;;;17.07;55.54;98734.09;5076005;27;45309;-68
2023/04/22 08:28:27;;;;;;;;;12.00;10.25;;;;;17.10;54.88;98734.69;5074236;28;45450;-68
2023/04/22 08:30:53;;;;;;;;;9.75;9.00;;;;;17.01;53.44;98738.03;5076407;27;45727;-63
2023/04/22 08:33:18;;;;;;;;;8.50;8.00;;;;;16.89;53.90;98733.59;5066186;27;45475;-61
2023/04/22 08:35:44;;;;;;;;;9.50;7.75;;;;;16.80;53.14;98736.06;5075898;28;45426;-59
2023/04/22 08:38:09;;;;;;;;;13.00;12.00;;;;;16.79;54.46;98729.88;5075550;27;45496;-59
2023/04/22 08:40:34;;;;;;;;;11.00;8.75;;;;;16.88;54.86;98731.91;5075400;27;46635;-59
2023/04/22 08:43:01;;;;;;;;;12.25;12.25;;;;;17.00;54.30;98719.50;5075636;27;45509;-59
2023/04/22 08:45:27;;;;;;;;;6.75;6.75;;;;;17.12;51.76;98717.75;5091902;27;45529;-59
2023/04/22 08:47:53;;;;;;;;;8.25;8.25;;;;;17.26;51.57;98717.63;5084423;27;45703;-59
2023/04/22 08:50:21;;;;;;;;;4.75;4.75;;;;;17.42;49.99;98711.03;5075685;27;46524;-59
2023/04/22 08:52:46;;;;;;;;;6.80;6.80;;;;;17.58;50.19;98696.56;5074916;27;45466;-63
2023/04/22 08:55:11;;;;;;;;;8.00;6.75;;;;;17.72;49.49;98707.91;5075483;27;45467;-62
2023/04/22 08:57:40;;;;;;;;;6.25;5.25;;;;;17.85;48.19;98696.31;5075451;27;45301;-62
2023/04/22 09:00:07;;;;;;;;;4.00;3.80;;;;;18.00;47.23;98697.78;5075402;28;46517;-65
2023/04/22 09:02:33;;;;;;;;;4.20;4.20;;;;;18.15;46.81;98691.25;5071731;27;45274;-64
2023/04/22 09:05:01;;;;;;;;;7.00;5.00;;;;;18.30;46.36;98694.53;5075072;27;45377;-60
2023/04/22 09:07:28;;;;;;;;;5.75;5.00;;;;;18.33;48.26;98694.31;5075150;27;45378;-60
2023/04/22 09:09:55;;;;;;;;;10.25;9.25;;;;;18.34;48.76;98691.53;5072927;28;46417;-60
2023/04/22 09:12:20;;;;;;;;;11.00;8.00;;;;;18.37;48.97;98690.44;5075621;27;45444;-60
2023/04/22 09:14:46;;;;;;;;;13.00;10.00;;;;;18.40;49.63;98690.19;5075799;27;45368;-61
2023/04/22 09:17:15;;;;;;;;;13.25;11.00;;;;;18.42;50.51;98699.78;5069927;28;45468;-60
2023/04/22 09:19:41;;;;;;;;;15.00;13.00;;;;;18.45;50.96;98696.84;5067323;28;46610;-61
2023/04/22 09:22:14;;;;;;;;;14.25;10.00;;;;;18.48;51.33;98683.28;5075269;27;45376;-61
2023/04/22 09:24:48;;;;;;;;;19.00;15.00;;;;;18.54;50.19;98681.09;5075011;28;45414;-70
2023/04/22 09:27:16;;;;;;;;;15.25;12.50;;;;;18.65;50.36;98683.78;5075019;28;45330;-70
2023/04/22 09:29:48;;;;;;;;;16.75;15.00;;;;;18.76;50.32;98681.97;5075125;27;45699;-69
2023/04/22 09:32:14;;;;;;;;;5.40;5.40;;;;;18.88;47.21;98668.59;5074892;27;45341;-69
2023/04/22 09:34:50;;;;;;;;;8.25;7.75;;;;;19.04;47.97;98680.56;5075733;28;45340;-70
2023/04/22 09:37:26;;;;;;;;;5.75;5.75;;;;;19.24;46.48;98676.25;5074533;27;45590;-69
2023/04/22 09:39:53;;;;;;;;;13.50;10.75;;;;;19.44;47.30;98666.56;5074691;27;45473;-69
2023/04/22 09:42:19;;;;;;;;;13.80;13.60;;;;;19.65;48.24;98675.50;5075147;28;45329;-69
2023/04/22 09:44:53;;;;;;;;;14.00;12.00;;;;;19.79;48.20;98685.03;5074587;28;45464;-69
2023/04/22 09:47:19;;;;;;;;;7.00;6.00;;;;;19.83;45.37;98665.91;5073703;28;45869;-69
2023/04/22 09:49:46;;;;;;;;;6.60;6.40;;;;;19.72;45.41;98674.00;5061099;28;45416;-70
2023/04/22 09:52:25;;;;;;;;;6.00;5.20;;;;;19.76;45.17;98678.13;5074539;27;45399;-70
2023/04/22 09:54:51;;;;;;;;;3.00;3.00;;;;;19.82;44.24;98680.28;5071015;28;45381;-70
2023/04/22 09:57:17;;;;;;;;;5.00;5.00;;;;;19.86;43.70;98684.38;5074815;27;45349;-70
2023/04/22 09:59:42;;;;;;;;;1.40;0.40;;;;;19.83;43.84;98676.63;5074963;28;45477;-70
2023/04/22 10:02:08;;;;;;;;;10.25;5.50;;;;;19.86;44.00;98675.50;5070831;28;45391;-70
2023/04/22 10:04:34;;;;;;;;;4.75;4.75;;;;;19.94;44.01;98669.53;5072586;27;45461;-70
2023/04/22 10:07:01;;;;;;;;;5.00;4.00;;;;;20.05;43.36;98677.47;5073164;27;45419;-70
2023/04/22 10:09:27;;;;;;;;;5.40;2.40;;;;;20.10;42.44;98676.09;5072589;28;45486;-70
2023/04/22 10:11:54;;;;;;;;;4.00;4.00;;;;;20.06;42.45;98669.31;5074346;27;45631;-71
2023/04/22 10:14:24;;;;;;;;;4.40;3.40;;;;;20.04;43.11;98678.44;5073721;27;45490;-71
2023/04/22 10:16:53;;;;;;;;;4.25;4.25;;;;;20.11;42.96;98669.75;5071193;27;45486;-71
2023/04/22 10:19:22;;;;;;;;;7.00;5.60;;;;;20.17;41.93;98663.88;5064144;28;45375;-70
2023/04/22 10:21:53;;;;;;;;;4.40;4.00;;;;;20.11;41.85;98658.19;5074517;27;45389;-71
2023/04/22 10:24:19;;;;;;;;;5.60;5.00;;;;;19.96;39.93;98659.50;5074703;27;45367;-70
2023/04/22 10:26:53;;;;;;;;;5.00;5.00;;;;;19.79;41.00;98659.13;5073859;28;45547;-70
2023/04/22 10:29:20;;;;;;;;;5.00;4.20;;;;;19.69;41.28;98658.22;5073759;27;46357;-69
2023/04/22 10:32:04;;;;;;;;;4.00;4.00;;;;;19.63;41.64;98657.88;5072620;27;45433;-69
2023/04/22 10:34:33;;;;;;;;;6.40;4.80;;;;;19.47;42.01;98666.31;5067671;28;45409;-69
2023/04/22 10:37:10;;;;;;;;;5.00;5.00;;;;;19.30;41.86;98675.72;5073977;27;45573;-70
2023/04/22 10:39:37;;;;;;;;;4.00;4.00;;;;;19.17;42.50;98673.25;5073284;27;45561;-70
2023/04/22 10:42:02;;;;;;;;;4.40;4.40;;;;;19.08;42.05;98666.00;5073922;27;45474;-70
2023/04/22 10:44:52;;;;;;;;;5.25;3.75;;;;;18.99;42.69;98650.69;5074039;27;45317;-70
2023/04/22 10:47:32;;;;;;;;;2.25;2.25;;;;;18.96;42.85;98653.63;5067910;28;45420;-70
2023/04/22 10:50:20;;;;;;;;;6.20;6.00;;;;;19.01;41.91;98646.06;5061900;28;45461;-70
2023/04/22 10:52:49;;;;;;;;;4.80;4.00;;;;;19.04;41.83;98634.28;5073939;28;45462;-70
2023/04/22 10:55:15;;;;;;;;;4.00;4.00;;;;;19.14;41.56;98638.75;5073737;27;45428;-70
2023/04/22 10:57:42;;;;;;;;;3.50;3.50;;;;;19.29;41.46;98627.75;5073782;28;45437;-71
2023/04/22 11:00:24;;;;;;;;;7.25;5.00;;;;;19.41;40.81;98630.25;5073740;27;45545;-70
2023/04/22 11:03:07;;;;;;;;;6.20;4.00;;;;;19.52;41.29;98637.41;5060319;28;45456;-70
2023/04/22 11:05:34;;;;;;;;;5.00;5.00;;;;;19.60;40.87;98632.28;5073163;28;45463;-71
2023/04/22 11:08:17;;;;;;;;;5.75;5.00;;;;;19.61;41.14;98625.06;5073018;27;45478;-71
2023/04/22 11:10:45;;;;;;;;;3.00;3.00;;;;;19.64;41.36;98635.50;5072441;28;45432;-70
2023/04/22 11:13:14;;;;;;;;;4.60;4.40;;;;;19.67;40.38;98625.41;5073867;27;45452;-71
2023/04/22 11:15:45;;;;;;;;;2.00;2.00;;;;;19.68;39.80;98626.25;5073124;27;45551;-70
2023/04/22 11:18:20;;;;;;;;;4.50;4.50;;;;;19.67;39.62;98621.88;5059037;28;45486;-69
2023/04/22 11:20:47;;;;;;;;;2.00;2.00;;;;;19.60;39.78;98629.59;5061295;28;45669;-70
2023/04/22 11:23:26;;;;;;;;;4.60;4.00;;;;;19.58;39.40;98617.34;5073248;27;45518;-70